Terminal Aerodrome Forecast
Issued by NWS Memphis, TN

Home | Current Version | Previous Version | Text Only | Print | Product List | Glossary On
Versions: 1 2 3 4 5 6 7 8 9 10 11 12 13 14 15 16 17 18 19 20 21 22
927
FTUS44 KMEG 221741
TAFJBR
TAF
KJBR 221741Z 2218/2318 08005KT P6SM OVC005
     FM222000 09005KT P6SM OVC007
     FM230100 10005KT 2SM SHRA BR VCTS OVC004CB
     FM231200 20005KT 3SM -SHRA BR OVC004
     FM231500 26005KT 4SM -SHRA BR OVC004=

USA.gov is the U.S. government's official web portal to all federal, state and local government web resources and services.